Terminal Aerodrome Forecast
Issued by NWS

Home | Current Version | Previous Version | Text Only | Print | Product List | Glossary On
Versions: 1 2 3 4 5 6 7 8 9 10 11 12 13 14 15 16 17 18 19 20 21 22 23 24 25
000
FTUS44 KOUN 280527
TAFGAG
TAF
KGAG 280527Z 2806/2906 16012KT P6SM FEW030 OVC100
     FM281500 18014G20KT P6SM BKN030 PROB30 2818/2824 6SM -TSRA
      BKN015CB
     FM290000 18013KT P6SM OVC030=

USA.gov is the U.S. government's official web portal to all federal, state and local government web resources and services.